< < Back
Terminal Aerodrome Forecast


Current Version              Previous Versions:   1  2  3  4  5  6  7  8  9  

Terminal Aerodrome Forecast

947
FTUS42 KTAE 242320
TAFVLD
TAF
KVLD 242320Z 2500/2524 07007KT P6SM SCT040
     FM250300 VRB02KT P6SM SCT250
     FM251500 06009KT P6SM SCT040=



Latest METAR

039
SAUS70 KWBC 251300 RRB
MTRVLD
METAR KVLD 251253Z 05004KT 10SM CLR 25/22 A3016 RMK AO2 SLP219
T02500217


USA.gov is the U.S. government's official web portal to all federal, state and local government web resources and services.